sensor_id;sensor_type;location;lat;lon;timestamp;P1;durP1;ratioP1;P2;durP2;ratioP2
28007;SDS011;15333;50.010;20.020;2023-02-15T00:01:07;57.78;;;29.17;;
28007;SDS011;15333;50.010;20.020;2023-02-15T00:04:09;47.20;;;26.60;;
28007;SDS011;15333;50.010;20.020;2023-02-15T00:07:16;53.88;;;28.00;;
28007;SDS011;15333;50.010;20.020;2023-02-15T00:10:18;62.05;;;31.75;;
28007;SDS011;15333;50.010;20.020;2023-02-15T00:13:19;48.85;;;26.95;;
28007;SDS011;15333;50.010;20.020;2023-02-15T00:16:20;55.95;;;29.17;;
28007;SDS011;15333;50.010;20.020;2023-02-15T00:19:21;60.38;;;31.75;;
28007;SDS011;15333;50.010;20.020;2023-02-15T00:22:22;53.75;;;29.08;;
28007;SDS011;15333;50.010;20.020;2023-02-15T00:25:23;80.05;;;39.58;;
28007;SDS011;15333;50.010;20.020;2023-02-15T00:28:24;61.85;;;30.60;;
28007;SDS011;15333;50.010;20.020;2023-02-15T00:31:25;56.92;;;31.23;;
28007;SDS011;15333;50.010;20.020;2023-02-15T00:34:27;59.28;;;32.28;;
28007;SDS011;15333;50.010;20.020;2023-02-15T00:37:31;58.47;;;31.70;;
28007;SDS011;15333;50.010;20.020;2023-02-15T00:40:31;69.55;;;35.35;;
28007;SDS011;15333;50.010;20.020;2023-02-15T00:46:53;64.30;;;33.42;;
28007;SDS011;15333;50.010;20.020;2023-02-15T00:49:55;63.00;;;34.20;;
28007;SDS011;15333;50.010;20.020;2023-02-15T00:52:55;72.30;;;36.30;;
28007;SDS011;15333;50.010;20.020;2023-02-15T00:55:57;53.95;;;28.17;;
28007;SDS011;15333;50.010;20.020;2023-02-15T00:58:58;54.65;;;29.08;;
28007;SDS011;15333;50.010;20.020;2023-02-15T01:01:59;52.08;;;28.83;;
28007;SDS011;15333;50.010;20.020;2023-02-15T01:05:00;56.22;;;29.92;;
28007;SDS011;15333;50.010;20.020;2023-02-15T01:08:01;53.75;;;28.83;;
28007;SDS011;15333;50.010;20.020;2023-02-15T01:11:12;50.92;;;28.85;;
28007;SDS011;15333;50.010;20.020;2023-02-15T01:14:15;51.28;;;28.10;;
28007;SDS011;15333;50.010;20.020;2023-02-15T01:17:16;59.10;;;30.02;;
28007;SDS011;15333;50.010;20.020;2023-02-15T01:20:18;57.83;;;30.40;;
28007;SDS011;15333;50.010;20.020;2023-02-15T01:23:23;60.38;;;29.95;;
28007;SDS011;15333;50.010;20.020;2023-02-15T01:26:25;56.08;;;30.92;;
28007;SDS011;15333;50.010;20.020;2023-02-15T01:29:25;55.65;;;29.77;;
28007;SDS011;15333;50.010;20.020;2023-02-15T01:32:28;49.33;;;28.23;;
28007;SDS011;15333;50.010;20.020;2023-02-15T01:35:29;63.03;;;31.30;;
28007;SDS011;15333;50.010;20.020;2023-02-15T01:38:30;53.95;;;29.05;;
28007;SDS011;15333;50.010;20.020;2023-02-15T01:41:31;59.35;;;29.25;;
28007;SDS011;15333;50.010;20.020;2023-02-15T01:44:45;58.13;;;32.17;;
28007;SDS011;15333;50.010;20.020;2023-02-15T01:50:58;62.17;;;33.00;;
28007;SDS011;15333;50.010;20.020;2023-02-15T01:54:05;53.88;;;28.58;;
28007;SDS011;15333;50.010;20.020;2023-02-15T01:57:13;58.63;;;29.07;;
28007;SDS011;15333;50.010;20.020;2023-02-15T02:00:18;59.00;;;31.75;;
28007;SDS011;15333;50.010;20.020;2023-02-15T02:03:24;60.38;;;33.10;;
28007;SDS011;15333;50.010;20.020;2023-02-15T02:06:37;55.80;;;29.77;;
28007;SDS011;15333;50.010;20.020;2023-02-15T02:09:40;55.88;;;29.38;;
28007;SDS011;15333;50.010;20.020;2023-02-15T02:12:42;54.05;;;30.08;;
28007;SDS011;15333;50.010;20.020;2023-02-15T02:15:54;47.58;;;27.55;;
28007;SDS011;15333;50.010;20.020;2023-02-15T02:25:56;62.30;;;30.42;;
28007;SDS011;15333;50.010;20.020;2023-02-15T02:35:23;64.33;;;33.50;;
28007;SDS011;15333;50.010;20.020;2023-02-15T02:41:38;61.10;;;32.40;;
28007;SDS011;15333;50.010;20.020;2023-02-15T02:45:03;67.55;;;35.65;;
28007;SDS011;15333;50.010;20.020;2023-02-15T02:48:41;60.53;;;32.00;;
28007;SDS011;15333;50.010;20.020;2023-02-15T02:51:42;67.90;;;34.05;;
28007;SDS011;15333;50.010;20.020;2023-02-15T02:54:44;62.80;;;31.77;;
28007;SDS011;15333;50.010;20.020;2023-02-15T03:01:20;58.35;;;31.17;;
28007;SDS011;15333;50.010;20.020;2023-02-15T03:04:27;70.50;;;34.97;;
28007;SDS011;15333;50.010;20.020;2023-02-15T03:07:31;66.80;;;34.10;;
28007;SDS011;15333;50.010;20.020;2023-02-15T03:10:36;61.70;;;32.20;;
28007;SDS011;15333;50.010;20.020;2023-02-15T03:13:39;62.90;;;32.72;;
28007;SDS011;15333;50.010;20.020;2023-02-15T03:16:41;63.80;;;31.67;;
28007;SDS011;15333;50.010;20.020;2023-02-15T03:19:47;68.10;;;30.77;;
28007;SDS011;15333;50.010;20.020;2023-02-15T03:22:51;70.72;;;35.10;;
28007;SDS011;15333;50.010;20.020;2023-02-15T03:25:57;71.72;;;36.53;;
28007;SDS011;15333;50.010;20.020;2023-02-15T03:29:03;68.43;;;34.67;;
28007;SDS011;15333;50.010;20.020;2023-02-15T03:32:08;68.18;;;33.90;;
28007;SDS011;15333;50.010;20.020;2023-02-15T03:35:11;72.03;;;35.15;;
28007;SDS011;15333;50.010;20.020;2023-02-15T03:38:13;63.92;;;33.13;;
28007;SDS011;15333;50.010;20.020;2023-02-15T03:41:20;68.68;;;33.50;;
28007;SDS011;15333;50.010;20.020;2023-02-15T03:51:54;77.88;;;36.90;;
28007;SDS011;15333;50.010;20.020;2023-02-15T03:54:58;66.57;;;33.35;;
28007;SDS011;15333;50.010;20.020;2023-02-15T03:57:59;71.25;;;34.55;;
28007;SDS011;15333;50.010;20.020;2023-02-15T04:04:47;65.55;;;32.55;;
28007;SDS011;15333;50.010;20.020;2023-02-15T04:07:48;72.22;;;35.88;;
28007;SDS011;15333;50.010;20.020;2023-02-15T04:10:49;73.75;;;37.15;;
28007;SDS011;15333;50.010;20.020;2023-02-15T04:13:52;72.15;;;35.28;;
28007;SDS011;15333;50.010;20.020;2023-02-15T04:16:56;67.10;;;32.53;;
28007;SDS011;15333;50.010;20.020;2023-02-15T04:19:57;69.88;;;34.30;;
28007;SDS011;15333;50.010;20.020;2023-02-15T04:23:17;74.70;;;34.80;;
28007;SDS011;15333;50.010;20.020;2023-02-15T04:26:37;76.07;;;35.85;;
28007;SDS011;15333;50.010;20.020;2023-02-15T04:29:38;76.80;;;36.30;;
28007;SDS011;15333;50.010;20.020;2023-02-15T04:32:39;70.88;;;33.88;;
28007;SDS011;15333;50.010;20.020;2023-02-15T04:35:40;70.85;;;33.85;;
28007;SDS011;15333;50.010;20.020;2023-02-15T04:38:41;75.90;;;36.08;;
28007;SDS011;15333;50.010;20.020;2023-02-15T04:41:42;72.25;;;34.08;;
28007;SDS011;15333;50.010;20.020;2023-02-15T04:44:43;77.22;;;36.33;;
28007;SDS011;15333;50.010;20.020;2023-02-15T04:47:44;79.72;;;37.53;;
28007;SDS011;15333;50.010;20.020;2023-02-15T04:50:45;77.15;;;38.15;;
28007;SDS011;15333;50.010;20.020;2023-02-15T04:53:46;80.30;;;37.47;;
28007;SDS011;15333;50.010;20.020;2023-02-15T04:56:47;79.43;;;38.08;;
28007;SDS011;15333;50.010;20.020;2023-02-15T04:59:48;78.47;;;37.42;;
28007;SDS011;15333;50.010;20.020;2023-02-15T05:02:49;70.88;;;35.85;;
28007;SDS011;15333;50.010;20.020;2023-02-15T05:05:50;80.28;;;39.05;;
28007;SDS011;15333;50.010;20.020;2023-02-15T05:08:51;74.88;;;35.75;;
28007;SDS011;15333;50.010;20.020;2023-02-15T05:11:52;74.53;;;37.13;;
28007;SDS011;15333;50.010;20.020;2023-02-15T05:14:53;73.10;;;36.53;;
28007;SDS011;15333;50.010;20.020;2023-02-15T05:17:54;74.22;;;35.47;;
28007;SDS011;15333;50.010;20.020;2023-02-15T05:20:54;78.43;;;35.42;;
28007;SDS011;15333;50.010;20.020;2023-02-15T05:23:55;66.97;;;34.20;;
28007;SDS011;15333;50.010;20.020;2023-02-15T05:26:56;77.55;;;36.15;;
28007;SDS011;15333;50.010;20.020;2023-02-15T05:30:16;78.13;;;37.80;;
28007;SDS011;15333;50.010;20.020;2023-02-15T05:33:17;75.80;;;36.70;;
28007;SDS011;15333;50.010;20.020;2023-02-15T05:36:18;77.25;;;36.80;;
28007;SDS011;15333;50.010;20.020;2023-02-15T05:39:19;69.65;;;32.78;;
28007;SDS011;15333;50.010;20.020;2023-02-15T05:42:20;75.60;;;35.63;;
28007;SDS011;15333;50.010;20.020;2023-02-15T05:45:21;71.93;;;35.00;;
28007;SDS011;15333;50.010;20.020;2023-02-15T05:48:23;74.55;;;34.45;;
28007;SDS011;15333;50.010;20.020;2023-02-15T05:51:25;74.78;;;35.05;;
28007;SDS011;15333;50.010;20.020;2023-02-15T05:54:26;75.50;;;36.33;;
28007;SDS011;15333;50.010;20.020;2023-02-15T05:57:27;75.28;;;36.55;;
28007;SDS011;15333;50.010;20.020;2023-02-15T06:00:28;65.13;;;32.90;;
28007;SDS011;15333;50.010;20.020;2023-02-15T06:03:29;69.25;;;35.35;;
28007;SDS011;15333;50.010;20.020;2023-02-15T06:06:30;72.63;;;34.30;;
28007;SDS011;15333;50.010;20.020;2023-02-15T06:09:31;76.25;;;37.70;;
28007;SDS011;15333;50.010;20.020;2023-02-15T06:12:32;75.68;;;37.75;;
28007;SDS011;15333;50.010;20.020;2023-02-15T06:15:33;72.50;;;36.38;;
28007;SDS011;15333;50.010;20.020;2023-02-15T06:18:33;67.93;;;34.30;;
28007;SDS011;15333;50.010;20.020;2023-02-15T06:21:35;70.90;;;37.22;;
28007;SDS011;15333;50.010;20.020;2023-02-15T06:24:35;69.43;;;35.50;;
28007;SDS011;15333;50.010;20.020;2023-02-15T06:27:37;78.20;;;36.60;;
28007;SDS011;15333;50.010;20.020;2023-02-15T06:30:38;73.03;;;35.85;;
28007;SDS011;15333;50.010;20.020;2023-02-15T06:33:39;76.93;;;37.58;;
28007;SDS011;15333;50.010;20.020;2023-02-15T06:36:40;72.78;;;37.30;;
28007;SDS011;15333;50.010;20.020;2023-02-15T06:39:41;72.00;;;35.53;;
28007;SDS011;15333;50.010;20.020;2023-02-15T06:42:43;72.63;;;36.35;;
28007;SDS011;15333;50.010;20.020;2023-02-15T06:45:44;75.70;;;37.45;;
28007;SDS011;15333;50.010;20.020;2023-02-15T06:48:45;74.75;;;37.67;;
28007;SDS011;15333;50.010;20.020;2023-02-15T06:51:46;72.60;;;36.03;;
28007;SDS011;15333;50.010;20.020;2023-02-15T06:54:47;71.25;;;35.20;;
28007;SDS011;15333;50.010;20.020;2023-02-15T06:57:49;73.28;;;36.83;;
28007;SDS011;15333;50.010;20.020;2023-02-15T07:00:50;73.88;;;37.83;;
28007;SDS011;15333;50.010;20.020;2023-02-15T07:03:52;76.07;;;38.15;;
28007;SDS011;15333;50.010;20.020;2023-02-15T07:06:53;59.83;;;32.03;;
28007;SDS011;15333;50.010;20.020;2023-02-15T07:09:54;64.75;;;33.95;;
28007;SDS011;15333;50.010;20.020;2023-02-15T07:12:55;58.28;;;30.52;;
28007;SDS011;15333;50.010;20.020;2023-02-15T07:15:56;67.43;;;33.90;;
28007;SDS011;15333;50.010;20.020;2023-02-15T07:18:57;61.35;;;31.05;;
28007;SDS011;15333;50.010;20.020;2023-02-15T07:21:58;53.15;;;27.98;;
28007;SDS011;15333;50.010;20.020;2023-02-15T07:24:58;56.65;;;29.58;;
28007;SDS011;15333;50.010;20.020;2023-02-15T07:28:01;49.97;;;25.35;;
28007;SDS011;15333;50.010;20.020;2023-02-15T07:31:04;50.85;;;27.15;;
28007;SDS011;15333;50.010;20.020;2023-02-15T07:34:06;52.88;;;26.42;;
28007;SDS011;15333;50.010;20.020;2023-02-15T07:37:08;47.97;;;25.98;;
28007;SDS011;15333;50.010;20.020;2023-02-15T07:40:09;56.40;;;28.00;;
28007;SDS011;15333;50.010;20.020;2023-02-15T07:43:10;52.80;;;27.85;;
28007;SDS011;15333;50.010;20.020;2023-02-15T07:46:13;53.55;;;28.35;;
28007;SDS011;15333;50.010;20.020;2023-02-15T07:49:15;55.40;;;27.27;;
28007;SDS011;15333;50.010;20.020;2023-02-15T07:52:16;52.75;;;28.67;;
28007;SDS011;15333;50.010;20.020;2023-02-15T07:55:17;51.70;;;27.33;;
28007;SDS011;15333;50.010;20.020;2023-02-15T07:58:19;58.05;;;27.67;;
28007;SDS011;15333;50.010;20.020;2023-02-15T08:01:27;51.72;;;28.38;;
28007;SDS011;15333;50.010;20.020;2023-02-15T08:04:31;53.67;;;28.75;;
28007;SDS011;15333;50.010;20.020;2023-02-15T08:07:31;51.75;;;26.08;;
28007;SDS011;15333;50.010;20.020;2023-02-15T08:10:33;50.90;;;26.17;;
28007;SDS011;15333;50.010;20.020;2023-02-15T08:13:57;55.72;;;28.92;;
28007;SDS011;15333;50.010;20.020;2023-02-15T08:17:00;56.33;;;28.65;;
28007;SDS011;15333;50.010;20.020;2023-02-15T08:20:05;53.22;;;28.48;;
28007;SDS011;15333;50.010;20.020;2023-02-15T08:23:07;51.78;;;27.88;;
28007;SDS011;15333;50.010;20.020;2023-02-15T08:26:07;59.30;;;31.17;;
28007;SDS011;15333;50.010;20.020;2023-02-15T08:29:09;58.70;;;29.52;;
28007;SDS011;15333;50.010;20.020;2023-02-15T08:32:10;61.25;;;29.83;;
28007;SDS011;15333;50.010;20.020;2023-02-15T08:35:12;51.92;;;27.83;;
28007;SDS011;15333;50.010;20.020;2023-02-15T08:38:13;53.92;;;29.45;;
28007;SDS011;15333;50.010;20.020;2023-02-15T08:41:28;58.17;;;27.83;;
28007;SDS011;15333;50.010;20.020;2023-02-15T08:44:30;57.83;;;28.63;;
28007;SDS011;15333;50.010;20.020;2023-02-15T08:47:31;58.50;;;27.70;;
28007;SDS011;15333;50.010;20.020;2023-02-15T08:50:32;55.25;;;28.33;;
28007;SDS011;15333;50.010;20.020;2023-02-15T08:53:33;51.58;;;26.85;;
28007;SDS011;15333;50.010;20.020;2023-02-15T08:56:36;55.72;;;28.67;;
28007;SDS011;15333;50.010;20.020;2023-02-15T08:59:38;52.35;;;28.10;;
28007;SDS011;15333;50.010;20.020;2023-02-15T09:02:39;59.10;;;29.63;;
28007;SDS011;15333;50.010;20.020;2023-02-15T09:05:40;58.55;;;30.95;;
28007;SDS011;15333;50.010;20.020;2023-02-15T09:08:41;61.10;;;31.83;;
28007;SDS011;15333;50.010;20.020;2023-02-15T09:11:43;52.28;;;27.58;;
28007;SDS011;15333;50.010;20.020;2023-02-15T09:14:45;53.92;;;28.75;;
28007;SDS011;15333;50.010;20.020;2023-02-15T09:17:46;63.53;;;31.02;;
28007;SDS011;15333;50.010;20.020;2023-02-15T09:20:47;63.40;;;33.05;;
28007;SDS011;15333;50.010;20.020;2023-02-15T09:23:49;61.58;;;31.13;;
28007;SDS011;15333;50.010;20.020;2023-02-15T09:26:51;58.78;;;30.60;;
28007;SDS011;15333;50.010;20.020;2023-02-15T09:29:52;56.55;;;30.42;;
28007;SDS011;15333;50.010;20.020;2023-02-15T09:32:53;59.00;;;30.90;;
28007;SDS011;15333;50.010;20.020;2023-02-15T09:35:54;58.55;;;29.23;;
28007;SDS011;15333;50.010;20.020;2023-02-15T09:48:58;63.20;;;30.40;;
28007;SDS011;15333;50.010;20.020;2023-02-15T09:52:34;58.83;;;31.10;;
28007;SDS011;15333;50.010;20.020;2023-02-15T09:56:02;68.53;;;32.78;;
28007;SDS011;15333;50.010;20.020;2023-02-15T10:02:44;60.25;;;31.10;;
28007;SDS011;15333;50.010;20.020;2023-02-15T10:15:42;64.50;;;32.13;;
28007;SDS011;15333;50.010;20.020;2023-02-15T10:19:01;66.03;;;35.40;;
28007;SDS011;15333;50.010;20.020;2023-02-15T10:26:34;74.72;;;35.05;;
28007;SDS011;15333;50.010;20.020;2023-02-15T10:29:29;76.90;;;36.58;;
28007;SDS011;15333;50.010;20.020;2023-02-15T10:32:52;74.07;;;36.42;;
28007;SDS011;15333;50.010;20.020;2023-02-15T10:49:55;67.20;;;33.70;;
28007;SDS011;15333;50.010;20.020;2023-02-15T10:56:51;72.28;;;35.85;;
28007;SDS011;15333;50.010;20.020;2023-02-15T11:00:27;66.90;;;34.35;;
28007;SDS011;15333;50.010;20.020;2023-02-15T11:03:56;68.45;;;35.65;;
28007;SDS011;15333;50.010;20.020;2023-02-15T11:07:28;71.25;;;36.75;;
28007;SDS011;15333;50.010;20.020;2023-02-15T11:10:48;66.65;;;36.03;;
28007;SDS011;15333;50.010;20.020;2023-02-15T11:14:05;70.00;;;35.65;;
28007;SDS011;15333;50.010;20.020;2023-02-15T11:17:38;70.05;;;34.65;;
28007;SDS011;15333;50.010;20.020;2023-02-15T11:20:53;66.82;;;34.70;;
28007;SDS011;15333;50.010;20.020;2023-02-15T11:23:59;69.53;;;34.42;;
28007;SDS011;15333;50.010;20.020;2023-02-15T11:27:02;63.65;;;33.13;;
28007;SDS011;15333;50.010;20.020;2023-02-15T11:30:25;65.38;;;33.83;;
28007;SDS011;15333;50.010;20.020;2023-02-15T11:33:35;64.38;;;35.63;;
28007;SDS011;15333;50.010;20.020;2023-02-15T11:36:43;67.53;;;36.05;;
28007;SDS011;15333;50.010;20.020;2023-02-15T11:39:46;67.47;;;34.28;;
28007;SDS011;15333;50.010;20.020;2023-02-15T11:42:55;64.95;;;34.55;;
28007;SDS011;15333;50.010;20.020;2023-02-15T11:45:59;64.22;;;34.13;;
28007;SDS011;15333;50.010;20.020;2023-02-15T11:49:00;64.65;;;34.55;;
28007;SDS011;15333;50.010;20.020;2023-02-15T11:52:02;63.78;;;33.67;;
28007;SDS011;15333;50.010;20.020;2023-02-15T11:55:11;64.88;;;34.50;;
28007;SDS011;15333;50.010;20.020;2023-02-15T12:01:33;68.32;;;34.58;;
28007;SDS011;15333;50.010;20.020;2023-02-15T12:04:38;64.30;;;33.53;;
28007;SDS011;15333;50.010;20.020;2023-02-15T12:10:53;64.13;;;33.00;;
28007;SDS011;15333;50.010;20.020;2023-02-15T12:14:01;64.25;;;34.25;;
28007;SDS011;15333;50.010;20.020;2023-02-15T12:17:12;65.45;;;33.40;;
28007;SDS011;15333;50.010;20.020;2023-02-15T12:23:15;59.53;;;30.95;;
28007;SDS011;15333;50.010;20.020;2023-02-15T12:26:27;58.17;;;31.98;;
28007;SDS011;15333;50.010;20.020;2023-02-15T12:29:35;61.17;;;32.17;;
28007;SDS011;15333;50.010;20.020;2023-02-15T12:32:49;60.88;;;32.92;;
28007;SDS011;15333;50.010;20.020;2023-02-15T12:35:55;60.50;;;32.97;;
28007;SDS011;15333;50.010;20.020;2023-02-15T12:42:16;64.32;;;32.60;;
28007;SDS011;15333;50.010;20.020;2023-02-15T12:45:24;59.80;;;32.05;;
28007;SDS011;15333;50.010;20.020;2023-02-15T12:48:27;62.35;;;32.45;;
28007;SDS011;15333;50.010;20.020;2023-02-15T12:51:28;60.70;;;33.08;;
28007;SDS011;15333;50.010;20.020;2023-02-15T12:54:30;62.20;;;33.47;;
28007;SDS011;15333;50.010;20.020;2023-02-15T12:57:34;57.72;;;31.77;;
28007;SDS011;15333;50.010;20.020;2023-02-15T13:00:35;57.72;;;33.08;;
28007;SDS011;15333;50.010;20.020;2023-02-15T13:03:52;66.78;;;34.72;;
28007;SDS011;15333;50.010;20.020;2023-02-15T13:07:05;57.22;;;33.33;;
28007;SDS011;15333;50.010;20.020;2023-02-15T13:10:21;57.92;;;32.50;;
28007;SDS011;15333;50.010;20.020;2023-02-15T13:13:26;61.13;;;32.70;;
28007;SDS011;15333;50.010;20.020;2023-02-15T13:16:30;62.15;;;32.50;;
28007;SDS011;15333;50.010;20.020;2023-02-15T13:19:36;60.05;;;30.80;;
28007;SDS011;15333;50.010;20.020;2023-02-15T13:22:42;58.08;;;33.17;;
28007;SDS011;15333;50.010;20.020;2023-02-15T13:25:47;57.80;;;30.40;;
28007;SDS011;15333;50.010;20.020;2023-02-15T13:28:51;53.17;;;29.25;;
28007;SDS011;15333;50.010;20.020;2023-02-15T13:31:57;54.67;;;29.52;;
28007;SDS011;15333;50.010;20.020;2023-02-15T13:35:00;55.80;;;28.98;;
28007;SDS011;15333;50.010;20.020;2023-02-15T13:38:10;56.47;;;30.35;;
28007;SDS011;15333;50.010;20.020;2023-02-15T13:51:02;50.60;;;28.33;;
28007;SDS011;15333;50.010;20.020;2023-02-15T13:54:23;53.67;;;28.80;;
28007;SDS011;15333;50.010;20.020;2023-02-15T14:04:07;58.40;;;30.42;;
28007;SDS011;15333;50.010;20.020;2023-02-15T14:07:35;56.10;;;30.02;;
28007;SDS011;15333;50.010;20.020;2023-02-15T14:10:57;59.45;;;31.05;;
28007;SDS011;15333;50.010;20.020;2023-02-15T14:14:22;54.58;;;29.80;;
28007;SDS011;15333;50.010;20.020;2023-02-15T14:17:33;58.28;;;31.13;;
28007;SDS011;15333;50.010;20.020;2023-02-15T14:21:00;53.97;;;29.35;;
28007;SDS011;15333;50.010;20.020;2023-02-15T14:24:30;59.03;;;28.85;;
28007;SDS011;15333;50.010;20.020;2023-02-15T14:30:56;58.88;;;30.15;;
28007;SDS011;15333;50.010;20.020;2023-02-15T14:33:58;60.58;;;31.38;;
28007;SDS011;15333;50.010;20.020;2023-02-15T14:36:59;56.45;;;30.17;;
28007;SDS011;15333;50.010;20.020;2023-02-15T14:40:10;57.53;;;30.75;;
28007;SDS011;15333;50.010;20.020;2023-02-15T14:46:52;56.22;;;28.35;;
28007;SDS011;15333;50.010;20.020;2023-02-15T14:53:38;56.90;;;30.98;;
28007;SDS011;15333;50.010;20.020;2023-02-15T14:56:40;55.95;;;29.40;;
28007;SDS011;15333;50.010;20.020;2023-02-15T14:59:53;56.22;;;29.80;;
28007;SDS011;15333;50.010;20.020;2023-02-15T15:02:58;61.60;;;30.10;;
28007;SDS011;15333;50.010;20.020;2023-02-15T15:06:01;57.33;;;31.17;;
28007;SDS011;15333;50.010;20.020;2023-02-15T15:15:38;53.08;;;28.70;;
28007;SDS011;15333;50.010;20.020;2023-02-15T15:18:47;58.70;;;30.98;;
28007;SDS011;15333;50.010;20.020;2023-02-15T15:25:00;62.45;;;30.15;;
28007;SDS011;15333;50.010;20.020;2023-02-15T15:41:56;83.03;;;36.42;;
28007;SDS011;15333;50.010;20.020;2023-02-15T15:48:33;66.70;;;32.38;;
28007;SDS011;15333;50.010;20.020;2023-02-15T15:51:40;72.88;;;33.33;;
28007;SDS011;15333;50.010;20.020;2023-02-15T15:54:43;71.20;;;34.83;;
28007;SDS011;15333;50.010;20.020;2023-02-15T15:57:46;65.50;;;32.47;;
28007;SDS011;15333;50.010;20.020;2023-02-15T16:01:09;70.65;;;32.85;;
28007;SDS011;15333;50.010;20.020;2023-02-15T16:04:22;67.30;;;32.78;;
28007;SDS011;15333;50.010;20.020;2023-02-15T16:07:26;71.22;;;32.55;;
28007;SDS011;15333;50.010;20.020;2023-02-15T16:10:28;70.78;;;32.95;;
28007;SDS011;15333;50.010;20.020;2023-02-15T16:13:32;68.97;;;34.58;;
28007;SDS011;15333;50.010;20.020;2023-02-15T16:16:34;68.00;;;33.92;;
28007;SDS011;15333;50.010;20.020;2023-02-15T16:19:36;74.38;;;35.78;;
28007;SDS011;15333;50.010;20.020;2023-02-15T16:22:39;71.93;;;34.72;;
28007;SDS011;15333;50.010;20.020;2023-02-15T16:25:49;76.45;;;34.80;;
28007;SDS011;15333;50.010;20.020;2023-02-15T16:29:00;68.93;;;33.17;;
28007;SDS011;15333;50.010;20.020;2023-02-15T16:32:06;70.13;;;34.20;;
28007;SDS011;15333;50.010;20.020;2023-02-15T16:35:28;70.65;;;33.70;;
28007;SDS011;15333;50.010;20.020;2023-02-15T16:41:42;78.32;;;35.85;;
28007;SDS011;15333;50.010;20.020;2023-02-15T16:44:48;78.18;;;35.75;;
28007;SDS011;15333;50.010;20.020;2023-02-15T16:48:28;84.97;;;38.63;;
28007;SDS011;15333;50.010;20.020;2023-02-15T16:51:31;86.75;;;38.05;;
28007;SDS011;15333;50.010;20.020;2023-02-15T16:54:34;84.38;;;38.60;;
28007;SDS011;15333;50.010;20.020;2023-02-15T16:57:36;80.25;;;38.70;;
28007;SDS011;15333;50.010;20.020;2023-02-15T17:00:38;94.13;;;40.33;;
28007;SDS011;15333;50.010;20.020;2023-02-15T17:03:43;82.32;;;38.47;;
28007;SDS011;15333;50.010;20.020;2023-02-15T17:10:26;86.35;;;40.35;;
28007;SDS011;15333;50.010;20.020;2023-02-15T17:13:29;91.90;;;41.00;;
28007;SDS011;15333;50.010;20.020;2023-02-15T17:16:34;91.32;;;41.40;;
28007;SDS011;15333;50.010;20.020;2023-02-15T17:22:53;94.45;;;41.38;;
28007;SDS011;15333;50.010;20.020;2023-02-15T17:25:54;98.65;;;44.25;;
28007;SDS011;15333;50.010;20.020;2023-02-15T17:29:01;98.97;;;45.80;;
28007;SDS011;15333;50.010;20.020;2023-02-15T17:32:21;102.30;;;47.83;;
28007;SDS011;15333;50.010;20.020;2023-02-15T17:35:25;114.40;;;50.58;;
28007;SDS011;15333;50.010;20.020;2023-02-15T17:38:28;112.88;;;53.08;;
28007;SDS011;15333;50.010;20.020;2023-02-15T17:41:30;120.18;;;54.05;;
28007;SDS011;15333;50.010;20.020;2023-02-15T17:44:34;129.63;;;58.63;;
28007;SDS011;15333;50.010;20.020;2023-02-15T17:47:35;135.25;;;59.28;;
28007;SDS011;15333;50.010;20.020;2023-02-15T17:50:36;140.30;;;62.47;;
28007;SDS011;15333;50.010;20.020;2023-02-15T17:53:37;143.48;;;62.67;;
28007;SDS011;15333;50.010;20.020;2023-02-15T17:56:38;137.85;;;59.35;;
28007;SDS011;15333;50.010;20.020;2023-02-15T17:59:40;146.95;;;65.45;;
28007;SDS011;15333;50.010;20.020;2023-02-15T18:03:00;149.80;;;66.00;;
28007;SDS011;15333;50.010;20.020;2023-02-15T18:06:20;159.18;;;69.80;;
28007;SDS011;15333;50.010;20.020;2023-02-15T18:09:39;162.70;;;70.47;;
28007;SDS011;15333;50.010;20.020;2023-02-15T18:12:59;161.27;;;70.47;;
28007;SDS011;15333;50.010;20.020;2023-02-15T18:16:00;179.73;;;75.90;;
28007;SDS011;15333;50.010;20.020;2023-02-15T18:19:01;149.07;;;64.78;;
28007;SDS011;15333;50.010;20.020;2023-02-15T18:22:10;166.23;;;73.40;;
28007;SDS011;15333;50.010;20.020;2023-02-15T18:25:13;175.15;;;76.30;;
28007;SDS011;15333;50.010;20.020;2023-02-15T18:28:15;167.27;;;72.63;;
28007;SDS011;15333;50.010;20.020;2023-02-15T18:31:16;179.07;;;78.43;;
28007;SDS011;15333;50.010;20.020;2023-02-15T18:37:29;188.80;;;78.32;;
28007;SDS011;15333;50.010;20.020;2023-02-15T18:40:35;175.30;;;80.13;;
28007;SDS011;15333;50.010;20.020;2023-02-15T18:43:36;195.23;;;82.78;;
28007;SDS011;15333;50.010;20.020;2023-02-15T18:46:36;206.20;;;86.07;;
28007;SDS011;15333;50.010;20.020;2023-02-15T18:49:38;195.20;;;79.88;;
28007;SDS011;15333;50.010;20.020;2023-02-15T18:52:38;186.82;;;76.57;;
28007;SDS011;15333;50.010;20.020;2023-02-15T18:55:40;204.18;;;85.07;;
28007;SDS011;15333;50.010;20.020;2023-02-15T18:58:43;244.70;;;97.43;;
28007;SDS011;15333;50.010;20.020;2023-02-15T19:01:47;245.38;;;98.00;;
28007;SDS011;15333;50.010;20.020;2023-02-15T19:04:47;263.77;;;104.55;;
28007;SDS011;15333;50.010;20.020;2023-02-15T19:07:49;264.33;;;102.47;;
28007;SDS011;15333;50.010;20.020;2023-02-15T19:10:50;274.90;;;104.30;;
28007;SDS011;15333;50.010;20.020;2023-02-15T19:13:51;224.20;;;88.78;;
28007;SDS011;15333;50.010;20.020;2023-02-15T19:16:53;277.80;;;105.03;;
28007;SDS011;15333;50.010;20.020;2023-02-15T19:19:54;218.52;;;85.25;;
28007;SDS011;15333;50.010;20.020;2023-02-15T19:22:55;280.80;;;105.82;;
28007;SDS011;15333;50.010;20.020;2023-02-15T19:26:00;258.08;;;93.70;;
28007;SDS011;15333;50.010;20.020;2023-02-15T19:29:01;243.40;;;90.35;;
28007;SDS011;15333;50.010;20.020;2023-02-15T19:32:02;270.20;;;101.65;;
28007;SDS011;15333;50.010;20.020;2023-02-15T19:35:03;254.25;;;93.75;;
28007;SDS011;15333;50.010;20.020;2023-02-15T19:38:06;266.40;;;97.63;;
28007;SDS011;15333;50.010;20.020;2023-02-15T19:41:22;327.73;;;115.78;;
28007;SDS011;15333;50.010;20.020;2023-02-15T19:44:27;308.67;;;105.10;;
28007;SDS011;15333;50.010;20.020;2023-02-15T19:47:27;253.77;;;96.88;;
28007;SDS011;15333;50.010;20.020;2023-02-15T19:50:29;328.67;;;124.30;;
28007;SDS011;15333;50.010;20.020;2023-02-15T19:53:32;310.73;;;116.53;;
28007;SDS011;15333;50.010;20.020;2023-02-15T19:56:33;324.88;;;121.88;;
28007;SDS011;15333;50.010;20.020;2023-02-15T19:59:35;330.05;;;126.40;;
28007;SDS011;15333;50.010;20.020;2023-02-15T20:02:36;311.58;;;120.38;;
28007;SDS011;15333;50.010;20.020;2023-02-15T20:05:38;298.42;;;116.90;;
28007;SDS011;15333;50.010;20.020;2023-02-15T20:08:40;309.58;;;117.53;;
28007;SDS011;15333;50.010;20.020;2023-02-15T20:11:42;320.38;;;119.28;;
28007;SDS011;15333;50.010;20.020;2023-02-15T20:14:43;316.30;;;119.95;;
28007;SDS011;15333;50.010;20.020;2023-02-15T20:17:43;316.70;;;123.07;;
28007;SDS011;15333;50.010;20.020;2023-02-15T20:20:51;293.00;;;119.78;;
28007;SDS011;15333;50.010;20.020;2023-02-15T20:23:54;307.92;;;120.07;;
28007;SDS011;15333;50.010;20.020;2023-02-15T20:26:55;308.05;;;121.07;;